Bookmark and Share
Track history (hours):
 

Crown Topaz

Last reported at 2014-Apr-10 02:13 UTC. Time now 2014-Apr-17 00:50 UTC.
Position N 49°58' W 002°60'.

Length 152 m; draft 6.7 m.

Type: Cargo ship. MMSI: 357144000.

NotesDate/timePositionNaut miles runAvg speedWind from/ knotsBaromVisibWave heightAir tempDewpointWater temp
2014-Apr-10 02:13N 49°58' W 002°60'1318.4
2014-Apr-10 01:31N 50°00' W 002°40'1818.6
2014-Apr-10 00:33N 50°03' W 002°12'1917.9
2014-Apr-09 23:31N 49°56' W 001°46'1920.3
2014-Apr-09 22:33N 49°49' W 001°17'2120.3
2014-Apr-09 21:33N 49°40' W 000°49'1919.4
2014-Apr-09 20:33N 49°34' W 000°21'1616.0
2014-Apr-09 19:33N 49°27' E 000°02'1312.8
2014-Apr-09 18:34N 49°26' E 000°21'5 0.8
2014-Apr-09 11:32N 49°29' E 000°29'1010.6
2014-Apr-09 10:34N 49°26' E 000°13'1313.1
2014-Apr-09 09:33N 49°29' W 000°06'6014.9
2014-Apr-09 05:31N 50°29' E 000°06'1718.0
2014-Apr-09 04:33N 50°34' E 000°32'1818.0
2014-Apr-09 03:33N 50°44' E 000°56'1918.6
2014-Apr-09 02:33N 50°56' E 001°19'2019.7
2014-Apr-09 01:33N 51°11' E 001°39'1919.0
2014-Apr-09 00:33N 51°25' E 002°00'1817.6
2014-Apr-08 23:33N 51°22' E 002°28'1414.2
2014-Apr-08 22:34N 51°22' E 002°51'1716.8
2014-Apr-08 21:33N 51°25' E 003°17'1313.4
2014-Apr-08 20:33N 51°26' E 003°39'1110.6
2014-Apr-08 19:33N 51°22' E 003°54'6 6.2
2014-Apr-08 18:33N 51°22' E 004°04'8 8.4
2014-Apr-08 17:34N 51°20' E 004°16'4 3.7
2014-Apr-08 16:34N 51°17' E 004°20'2 1.6
2014-Apr-08 15:33N 51°16' E 004°22'1 0.6
2014-Apr-08 14:33N 51°16' E 004°23'0 0.0
2014-Apr-08 13:32N 51°16' E 004°23'0 0.0
2014-Apr-08 12:33N 51°16' E 004°23'0 0.0
2014-Apr-08 11:33N 51°16' E 004°23'0 0.0
2014-Apr-08 10:33N 51°16' E 004°23'0 0.0
2014-Apr-08 09:30N 51°16' E 004°23'0 0.0
2014-Apr-08 08:33N 51°16' E 004°23'0 0.0
2014-Apr-08 07:33N 51°16' E 004°23'0 0.0
2014-Apr-08 06:30N 51°16' E 004°23'0 0.0
2014-Apr-08 05:33N 51°16' E 004°23'0 0.0
2014-Apr-08 04:33N 51°16' E 004°23'0 0.0
2014-Apr-08 03:33N 51°16' E 004°23'0 0.0
2014-Apr-08 02:33N 51°16' E 004°23'0 0.0
2014-Apr-08 01:33N 51°16' E 004°23'0 0.0
2014-Apr-08 00:33N 51°16' E 004°23'0 0.0
2014-Apr-07 23:33N 51°16' E 004°23'0 0.0
2014-Apr-07 22:33N 51°16' E 004°23'0 0.0
2014-Apr-07 21:33N 51°16' E 004°23'0 0.0
2014-Apr-07 20:33N 51°16' E 004°23'0 0.0
2014-Apr-07 19:33N 51°16' E 004°23'0 0.0
2014-Apr-07 17:30N 51°16' E 004°23'0 0.0
2014-Apr-07 16:33N 51°16' E 004°23'0 0.0
2014-Apr-07 15:30N 51°16' E 004°23'0 0.0
2014-Apr-07 14:32N 51°16' E 004°23'0 0.0
2014-Apr-07 13:33N 51°16' E 004°23'0 0.0
2014-Apr-07 12:32N 51°16' E 004°23'0 0.0
2014-Apr-07 11:33N 51°16' E 004°23'0 0.0
2014-Apr-07 10:33N 51°16' E 004°23'4 3.8
2014-Apr-07 09:34N 51°19' E 004°19'3 2.5
2014-Apr-07 08:33N 51°21' E 004°17'2 2.0
2014-Apr-07 07:34N 51°21' E 004°14'7 7.5
2014-Apr-07 06:34N 51°23' E 004°02'1010.4
2014-Apr-07 05:33N 51°22' E 003°46'1010.4
2014-Apr-07 04:33N 51°25' E 003°30'1717.0
2014-Apr-07 03:33N 51°24' E 003°03'1514.5
2014-Apr-07 02:33N 51°22' E 002°40'10 9.5
2014-Apr-07 01:33N 51°21' E 002°25'1312.6
2014-Apr-07 00:33N 51°14' E 002°08'1212.5
2014-Apr-06 23:34N 51°08' E 001°51'1615.6
2014-Apr-06 22:33N 50°57' E 001°33'3417.2
2014-Apr-06 20:33N 50°31' E 000°57'2218.2
2014-Apr-06 19:20N 50°26' E 000°23'1917.3
2014-Apr-06 18:15N 50°23' W 000°06'1318.1
2014-Apr-06 17:33N 50°29' W 000°24'1817.7
2014-Apr-06 16:33N 50°37' W 000°48'1312.9
2014-Apr-06 15:33N 50°45' W 001°05'4 3.8
2014-Apr-06 14:31N 50°49' W 001°06'0 0.0
2014-Apr-06 13:31N 50°49' W 001°06'0 0.0
2014-Apr-06 12:32N 50°49' W 001°06'0 0.0
2014-Apr-06 11:31N 50°49' W 001°06'0 0.0
2014-Apr-06 10:32N 50°49' W 001°06'0 0.0
2014-Apr-06 09:32N 50°49' W 001°06'0 0.0
2014-Apr-06 08:31N 50°49' W 001°06'0 0.0
2014-Apr-06 07:32N 50°49' W 001°06'0 0.0
2014-Apr-06 06:32N 50°49' W 001°06'0 0.0
2014-Apr-06 05:32N 50°49' W 001°06'0 0.0
2014-Apr-06 04:32N 50°49' W 001°06'0 0.0
2014-Apr-06 03:32N 50°49' W 001°06'0 0.0
2014-Apr-06 02:32N 50°49' W 001°06'0 0.0
2014-Apr-06 01:32N 50°49' W 001°06'0 0.0
2014-Apr-06 00:32N 50°49' W 001°06'0 0.0
2014-Apr-05 23:31N 50°49' W 001°06'0 0.0
2014-Apr-05 22:32N 50°49' W 001°06'0 0.0
2014-Apr-05 21:32N 50°49' W 001°06'0 0.0
2014-Apr-05 20:32N 50°49' W 001°06'0 0.0
2014-Apr-05 19:32N 50°49' W 001°06'0 0.0
2014-Apr-05 18:32N 50°49' W 001°06'0 0.0
2014-Apr-05 17:32N 50°49' W 001°06'0 0.0
2014-Apr-05 16:33N 50°49' W 001°06'0 0.0
2014-Apr-05 15:33N 50°49' W 001°06'1 0.9
2014-Apr-05 14:34N 50°48' W 001°07'8 8.1
2014-Apr-05 13:33N 50°42' W 000°58'6 6.0
2014-Apr-05 12:33N 50°36' W 000°58'5 4.9
2014-Apr-05 11:33N 50°31' W 001°01'9 9.2
2014-Apr-05 10:33N 50°28' W 001°15'9 9.3
2014-Apr-05 09:33N 50°26' W 001°29'1212.5
2014-Apr-05 08:34N 50°22' W 001°47'  

Dump ship's entire track history

sailing weather and tide predictions

Crown Topaz — 3FAS9 — position and weather